Time;durP1;ratioP1;P1;durP2;ratioP2;P2;SDS_P1;SDS_P2;PMS_P1;PMS_P2;Temp;Humidity;BMP_temperature;BMP_pressure;BME280_temperature;BME280_humidity;BME280_pressure;Samples;Min_cycle;Max_cycle;Signal;HPM_P1;HPM_P2
2022/01/24 00:01:33;;;;;;;254.53;58.03;;;2.90;95.60;;;;;;5125974;27;20218;-67
2022/01/24 00:04:02;;;;;;;424.40;67.83;;;2.90;95.60;;;;;;5108281;27;20210;-67
2022/01/24 00:06:33;;;;;;;275.10;59.97;;;2.90;95.60;;;;;;5121761;27;20206;-67
2022/01/24 00:09:01;;;;;;;320.57;64.80;;;2.90;95.60;;;;;;5122584;27;20213;-67
2022/01/24 00:11:46;;;;;;;297.43;60.20;;;2.90;95.60;;;;;;5126115;27;20192;-67
2022/01/24 00:27:18;;;;;;;353.73;60.67;;;2.80;95.60;;;;;;5123602;27;20201;-67
2022/01/24 00:29:45;;;;;;;210.83;56.87;;;2.80;95.60;;;;;;5124485;27;20296;-67
2022/01/24 00:32:12;;;;;;;267.97;56.73;;;2.80;95.60;;;;;;5126438;27;20542;-67
2022/01/24 00:34:40;;;;;;;269.10;59.87;;;2.70;95.50;;;;;;5122651;27;20233;-67
2022/01/24 00:37:07;;;;;;;247.80;56.73;;;2.70;95.50;;;;;;5124926;27;20607;-67
2022/01/24 00:39:34;;;;;;;447.47;69.80;;;2.70;95.50;;;;;;5123343;27;20266;-67
2022/01/24 00:47:23;;;;;;;200.00;54.00;;;2.60;95.50;;;;;;5127952;27;20228;-67
2022/01/24 00:53:12;;;;;;;198.40;53.97;;;2.60;95.50;;;;;;5121842;27;20215;-67
2022/01/24 00:55:40;;;;;;;215.23;52.73;;;2.60;95.40;;;;;;5124991;27;20583;-67
2022/01/24 00:58:07;;;;;;;201.80;53.83;;;2.50;95.50;;;;;;5122333;27;20193;-67
2022/01/24 01:00:35;;;;;;;206.67;56.73;;;2.50;95.50;;;;;;5124604;27;20201;-67
2022/01/24 01:03:02;;;;;;;172.53;53.70;;;2.50;95.50;;;;;;5124788;27;20279;-67
2022/01/24 01:19:10;;;;;;;168.27;49.10;;;2.40;95.50;;;;;;5124618;27;20201;-67
2022/01/24 01:21:37;;;;;;;201.27;53.27;;;2.30;95.50;;;;;;5127201;27;20219;-67
2022/01/24 01:24:04;;;;;;;315.60;59.00;;;2.40;95.60;;;;;;5127139;27;20637;-67
2022/01/24 01:29:04;;;;;;;207.33;54.73;;;2.30;95.60;;;;;;5126096;27;20518;-67
2022/01/24 01:55:42;;;;;;;135.97;47.83;;;2.00;95.20;;;;;;5126755;27;20213;-67
2022/01/24 01:58:14;;;;;;;195.63;48.77;;;2.00;95.30;;;;;;5127824;27;20215;-67
2022/01/24 02:00:44;;;;;;;193.60;52.43;;;2.00;95.80;;;;;;5129310;27;20217;-67
2022/01/24 02:03:12;;;;;;;161.53;53.63;;;2.00;95.60;;;;;;5126259;27;20254;-68
2022/01/24 02:05:39;;;;;;;262.60;53.23;;;2.00;95.50;;;;;;5126655;27;20233;-67
2022/01/24 02:08:07;;;;;;;162.07;45.03;;;1.90;95.40;;;;;;5126507;27;20204;-67
2022/01/24 02:10:36;;;;;;;164.80;43.60;;;1.90;95.40;;;;;;5124942;27;20226;-67
2022/01/24 02:13:04;;;;;;;145.77;45.17;;;1.80;95.20;;;;;;5127843;27;20213;-67
2022/01/24 02:18:13;;;;;;;189.53;48.63;;;1.70;95.50;;;;;;5116735;28;20200;-67
2022/01/24 02:26:05;;;;;;;172.23;50.67;;;1.70;96.10;;;;;;5125353;27;20535;-67
2022/01/24 02:28:47;;;;;;;178.13;47.23;;;1.70;96.10;;;;;;5126275;27;20287;-67
2022/01/24 02:33:47;;;;;;;215.27;50.70;;;1.70;95.90;;;;;;5123518;27;20787;-67
2022/01/24 02:36:23;;;;;;;193.33;47.30;;;1.70;96.00;;;;;;5123018;27;20217;-67
2022/01/24 02:49:50;;;;;;;198.17;51.23;;;1.60;96.70;;;;;;5129414;27;20234;-67
2022/01/24 02:52:18;;;;;;;185.77;48.57;;;1.60;96.80;;;;;;5127442;27;20193;-67
2022/01/24 02:54:46;;;;;;;211.47;54.77;;;1.60;96.80;;;;;;5127439;27;20203;-67
2022/01/24 02:57:13;;;;;;;379.10;59.33;;;1.70;96.80;;;;;;5124799;27;20207;-67
2022/01/24 02:59:41;;;;;;;404.03;54.13;;;1.70;97.10;;;;;;5117043;28;20209;-67
2022/01/24 03:02:08;;;;;;;477.70;59.33;;;1.70;96.70;;;;;;5122323;27;20227;-67
2022/01/24 03:04:39;;;;;;;334.43;54.10;;;1.70;96.60;;;;;;5116392;28;20232;-67
2022/01/24 03:07:07;;;;;;;343.10;53.87;;;1.70;96.60;;;;;;5115929;28;20216;-67
2022/01/24 03:09:35;;;;;;;152.47;46.87;;;1.60;96.70;;;;;;5116489;28;20545;-67
2022/01/24 03:14:34;;;;;;;540.67;64.47;;;1.60;97.00;;;;;;5128488;27;20282;-67
2022/01/24 03:17:03;;;;;;;238.03;51.77;;;1.70;97.10;;;;;;5126937;27;20525;-67
2022/01/24 03:19:31;;;;;;;347.17;55.67;;;1.70;97.10;;;;;;5129796;27;20272;-67
2022/01/24 03:21:58;;;;;;;297.57;53.23;;;1.80;97.40;;;;;;5125099;27;20203;-67
2022/01/24 03:24:25;;;;;;;284.63;52.00;;;1.80;97.00;;;;;;5126656;27;20638;-67
2022/01/24 03:26:52;;;;;;;229.70;51.27;;;1.80;97.00;;;;;;5121266;27;20212;-67
2022/01/24 03:29:19;;;;;;;265.73;58.57;;;1.90;97.00;;;;;;5124314;27;20228;-67
2022/01/24 03:31:47;;;;;;;250.60;51.33;;;1.90;96.90;;;;;;5126259;27;20215;-67
2022/01/24 03:34:14;;;;;;;233.67;47.60;;;1.90;96.90;;;;;;5105908;27;20219;-68
2022/01/24 03:36:42;;;;;;;201.63;47.67;;;1.90;96.80;;;;;;5126405;27;20204;-67
2022/01/24 03:39:11;;;;;;;245.27;47.83;;;1.90;96.70;;;;;;5125222;27;20302;-67
2022/01/24 03:41:40;;;;;;;285.30;52.60;;;1.90;96.80;;;;;;5121911;27;20198;-67
2022/01/24 03:44:11;;;;;;;278.33;52.43;;;1.90;96.80;;;;;;5127775;27;20200;-67
2022/01/24 03:49:48;;;;;;;250.67;47.70;;;1.90;96.80;;;;;;5125372;27;20607;-67
2022/01/24 03:52:17;;;;;;;266.90;47.00;;;1.90;96.80;;;;;;5125665;27;20570;-67
2022/01/24 03:54:45;;;;;;;388.27;51.77;;;1.90;96.80;;;;;;5123447;27;20201;-67
2022/01/24 03:57:15;;;;;;;225.90;50.60;;;2.00;96.80;;;;;;5122932;27;20185;-67
2022/01/24 03:59:42;;;;;;;199.27;47.10;;;2.00;96.80;;;;;;5124676;27;20219;-67
2022/01/24 04:02:11;;;;;;;282.03;51.40;;;2.00;96.70;;;;;;5123821;27;20536;-67
2022/01/24 04:04:39;;;;;;;220.47;50.27;;;2.00;96.70;;;;;;5140474;27;20621;-67
2022/01/24 04:07:06;;;;;;;257.23;48.90;;;2.10;96.60;;;;;;5125587;27;20196;-67
2022/01/24 04:09:34;;;;;;;228.53;50.27;;;2.10;96.60;;;;;;5126185;27;20220;-67
2022/01/24 04:12:03;;;;;;;168.93;46.00;;;2.10;96.60;;;;;;5123474;27;20217;-67
2022/01/24 04:22:25;;;;;;;189.93;42.63;;;2.10;96.40;;;;;;5124643;27;20207;-67
2022/01/24 04:25:01;;;;;;;117.97;42.80;;;2.10;96.40;;;;;;5121708;27;20201;-68
2022/01/24 04:27:30;;;;;;;214.10;46.30;;;2.10;96.30;;;;;;5126064;27;20219;-67
2022/01/24 04:29:57;;;;;;;165.93;45.03;;;2.10;96.30;;;;;;5123168;27;20226;-67
2022/01/24 04:32:24;;;;;;;127.73;41.37;;;2.10;96.30;;;;;;5120149;27;20532;-67
2022/01/24 04:34:51;;;;;;;179.70;45.93;;;2.10;96.30;;;;;;5126495;27;20211;-67
2022/01/24 04:37:18;;;;;;;132.67;42.33;;;2.20;96.20;;;;;;5125389;27;20266;-67
2022/01/24 04:39:45;;;;;;;203.00;46.67;;;2.10;96.20;;;;;;5125511;27;20238;-68
2022/01/24 04:42:18;;;;;;;207.30;45.60;;;2.20;96.10;;;;;;5131500;27;20208;-68
2022/01/24 04:47:34;;;;;;;236.27;46.57;;;2.10;96.00;;;;;;5125443;27;20217;-67
2022/01/24 04:50:39;;;;;;;168.00;43.43;;;2.20;96.10;;;;;;5122186;27;20228;-67
2022/01/24 04:53:14;;;;;;;151.27;42.03;;;2.10;96.00;;;;;;5125048;27;20211;-68
2022/01/24 04:55:41;;;;;;;122.53;39.70;;;2.10;96.00;;;;;;5124511;27;20299;-68
2022/01/24 04:58:08;;;;;;;130.97;42.27;;;2.10;95.90;;;;;;5124600;27;20200;-68
2022/01/24 05:00:37;;;;;;;131.33;42.67;;;2.10;95.90;;;;;;5118691;27;20550;-68
2022/01/24 05:03:04;;;;;;;132.33;43.63;;;2.10;95.90;;;;;;5128305;27;20667;-68
2022/01/24 05:05:31;;;;;;;125.10;43.97;;;2.10;95.90;;;;;;5122199;28;20212;-68
2022/01/24 05:08:03;;;;;;;117.57;43.43;;;2.10;95.90;;;;;;5123565;28;20193;-68
2022/01/24 05:10:38;;;;;;;223.93;45.97;;;2.10;95.90;;;;;;5113307;28;20265;-67
2022/01/24 05:21:37;;;;;;;186.03;44.07;;;2.10;95.70;;;;;;5121064;28;20200;-67
2022/01/24 05:24:05;;;;;;;163.60;44.10;;;2.10;95.70;;;;;;5121614;28;20648;-68
2022/01/24 05:26:32;;;;;;;154.20;49.50;;;2.10;95.70;;;;;;5123770;27;20295;-68
2022/01/24 05:28:59;;;;;;;102.90;42.30;;;2.00;95.60;;;;;;5123966;28;20611;-67
2022/01/24 05:31:26;;;;;;;116.57;43.40;;;2.00;95.60;;;;;;5122383;27;20219;-67
2022/01/24 05:33:53;;;;;;;129.60;45.77;;;2.00;95.60;;;;;;5124638;28;20249;-67
2022/01/24 05:36:20;;;;;;;119.83;42.53;;;2.00;95.60;;;;;;5122938;28;20193;-67
2022/01/24 05:38:47;;;;;;;135.77;44.67;;;2.00;95.60;;;;;;5123277;28;20322;-68
2022/01/24 05:41:16;;;;;;;150.70;49.93;;;2.00;95.60;;;;;;5124819;28;20216;-68
2022/01/24 05:43:43;;;;;;;169.93;44.37;;;2.00;95.60;;;;;;5123140;28;20192;-68
2022/01/24 05:46:10;;;;;;;150.03;46.03;;;2.00;95.60;;;;;;5124382;27;20343;-68
2022/01/24 05:48:37;;;;;;;137.83;49.70;;;2.00;95.50;;;;;;5125057;28;20272;-68
2022/01/24 05:51:04;;;;;;;121.27;44.30;;;2.00;95.50;;;;;;5122093;28;20216;-68
2022/01/24 05:53:31;;;;;;;145.43;45.33;;;2.00;95.50;;;;;;5122057;28;20557;-68
2022/01/24 05:55:59;;;;;;;126.83;46.43;;;2.00;95.50;;;;;;5125498;27;20204;-68
2022/01/24 05:58:26;;;;;;;129.17;44.43;;;1.90;95.40;;;;;;5128734;27;20662;-68
2022/01/24 06:00:53;;;;;;;145.47;48.40;;;1.90;95.40;;;;;;5125531;27;20203;-67
2022/01/24 06:03:21;;;;;;;152.73;47.40;;;1.90;95.40;;;;;;5118879;28;20629;-67
2022/01/24 06:05:48;;;;;;;104.27;44.37;;;1.90;95.40;;;;;;5117457;28;20196;-67
2022/01/24 06:08:15;;;;;;;125.37;47.70;;;1.90;95.40;;;;;;5117903;28;20208;-67
2022/01/24 06:10:44;;;;;;;123.83;48.63;;;1.90;95.50;;;;;;5124540;27;20255;-67
2022/01/24 06:13:11;;;;;;;142.70;48.93;;;1.90;95.50;;;;;;5106394;27;20204;-67
2022/01/24 06:15:38;;;;;;;129.97;46.40;;;1.90;95.50;;;;;;5131511;27;20211;-67
2022/01/24 06:18:05;;;;;;;200.83;46.60;;;1.90;95.50;;;;;;5127846;27;20229;-68
2022/01/24 06:20:32;;;;;;;112.93;50.27;;;1.90;95.50;;;;;;5125487;27;20680;-67
2022/01/24 06:23:00;;;;;;;120.67;48.40;;;1.90;95.50;;;;;;5123279;27;20723;-67
2022/01/24 06:25:29;;;;;;;145.17;49.63;;;1.90;95.50;;;;;;5127583;27;20657;-67
2022/01/24 06:27:56;;;;;;;130.73;46.93;;;1.90;95.50;;;;;;5130809;27;20210;-68
2022/01/24 06:30:23;;;;;;;102.40;45.07;;;1.90;95.50;;;;;;5125446;27;20225;-68
2022/01/24 06:32:50;;;;;;;122.93;47.70;;;1.90;95.50;;;;;;5112671;27;20510;-67
2022/01/24 06:35:17;;;;;;;105.67;46.07;;;2.00;95.50;;;;;;5130859;27;20586;-69
2022/01/24 06:37:44;;;;;;;118.67;48.87;;;2.00;95.50;;;;;;5129712;27;20279;-68
2022/01/24 06:40:12;;;;;;;118.20;47.53;;;2.00;95.60;;;;;;5126434;27;20197;-68
2022/01/24 06:42:40;;;;;;;128.73;46.57;;;2.00;95.60;;;;;;5132189;27;20203;-68
2022/01/24 06:45:09;;;;;;;100.43;46.23;;;2.00;95.50;;;;;;5127755;27;20617;-68
2022/01/24 06:47:36;;;;;;;113.87;47.50;;;2.00;95.50;;;;;;5125909;27;20533;-68
2022/01/24 06:50:04;;;;;;;101.27;47.60;;;2.10;95.50;;;;;;5117136;28;20203;-68
2022/01/24 06:52:31;;;;;;;94.30;46.37;;;2.10;95.50;;;;;;5116939;28;20287;-68
2022/01/24 06:54:58;;;;;;;80.97;41.80;;;2.10;95.50;;;;;;5117011;28;20200;-67
2022/01/24 06:57:26;;;;;;;87.17;44.13;;;2.10;95.50;;;;;;5116325;28;20287;-68
2022/01/24 06:59:53;;;;;;;95.77;46.10;;;2.10;95.50;;;;;;5124779;27;20201;-68
2022/01/24 07:02:20;;;;;;;88.47;43.23;;;2.10;95.50;;;;;;5123146;27;20207;-68
2022/01/24 07:04:47;;;;;;;89.43;44.17;;;2.10;95.50;;;;;;5109716;27;20285;-68
2022/01/24 07:07:18;;;;;;;91.50;45.73;;;2.10;95.50;;;;;;5123967;27;20201;-68
2022/01/24 07:09:46;;;;;;;82.00;43.03;;;2.20;95.50;;;;;;5127677;27;20204;-68
2022/01/24 07:12:13;;;;;;;89.43;45.60;;;2.20;95.50;;;;;;5126443;27;20681;-68
2022/01/24 07:14:41;;;;;;;85.00;45.20;;;2.20;95.50;;;;;;5125642;27;20211;-68
2022/01/24 07:17:29;;;;;;;90.00;44.77;;;2.20;95.40;;;;;;5126962;27;20235;-68
2022/01/24 07:19:56;;;;;;;85.10;44.13;;;2.30;95.50;;;;;;5126510;27;20217;-68
2022/01/24 07:22:23;;;;;;;96.60;47.10;;;2.30;95.50;;;;;;5124417;27;20553;-67
2022/01/24 07:24:50;;;;;;;93.80;44.53;;;2.30;95.40;;;;;;5108586;27;20207;-67
2022/01/24 07:27:17;;;;;;;107.40;48.70;;;2.30;95.40;;;;;;5126097;27;20200;-67
2022/01/24 07:29:44;;;;;;;106.23;46.50;;;2.40;95.40;;;;;;5121567;27;20208;-67
2022/01/24 07:32:13;;;;;;;92.13;46.23;;;2.40;95.40;;;;;;5121365;27;20224;-67
2022/01/24 07:34:40;;;;;;;81.90;44.43;;;2.40;95.40;;;;;;5128637;27;20197;-68
2022/01/24 07:37:07;;;;;;;82.00;44.00;;;2.50;95.40;;;;;;5124941;27;20211;-67
2022/01/24 07:39:34;;;;;;;80.03;44.33;;;2.50;95.40;;;;;;5128150;27;20237;-67
2022/01/24 07:42:15;;;;;;;92.03;45.43;;;2.50;95.40;;;;;;5126098;27;20263;-67
2022/01/24 07:44:44;;;;;;;86.80;45.50;;;2.60;95.40;;;;;;5123781;27;20726;-67
2022/01/24 07:47:11;;;;;;;88.33;44.97;;;2.60;95.30;;;;;;5126925;27;20264;-67
2022/01/24 07:49:38;;;;;;;83.80;42.43;;;2.60;95.30;;;;;;5126463;27;20213;-68
2022/01/24 07:52:06;;;;;;;79.83;43.73;;;2.60;95.30;;;;;;5123969;27;20216;-68
2022/01/24 07:54:33;;;;;;;80.97;43.77;;;2.60;95.30;;;;;;5124715;27;20275;-68
2022/01/24 07:57:00;;;;;;;85.50;44.20;;;2.60;95.30;;;;;;5126188;27;20291;-67
2022/01/24 07:59:27;;;;;;;93.63;46.63;;;2.70;95.30;;;;;;5126106;27;20284;-67
2022/01/24 08:01:54;;;;;;;95.23;47.13;;;2.70;95.20;;;;;;5123886;27;20201;-67
2022/01/24 08:04:21;;;;;;;102.70;49.57;;;2.70;95.20;;;;;;5130202;27;20269;-68
2022/01/24 08:06:49;;;;;;;98.23;46.77;;;2.70;95.10;;;;;;5126093;27;20208;-67
2022/01/24 08:09:16;;;;;;;92.93;46.23;;;2.70;95.10;;;;;;5125391;27;20225;-67
2022/01/24 08:11:44;;;;;;;91.70;47.27;;;2.70;95.10;;;;;;5122999;27;20221;-68
2022/01/24 08:14:11;;;;;;;98.63;49.03;;;2.70;95.10;;;;;;5123414;27;20208;-68
2022/01/24 08:16:40;;;;;;;97.40;48.93;;;2.70;95.10;;;;;;5122452;27;20204;-68
2022/01/24 08:19:07;;;;;;;99.37;47.30;;;2.80;95.20;;;;;;5127190;27;20208;-68
2022/01/24 08:21:34;;;;;;;101.47;47.57;;;2.80;95.10;;;;;;5121762;27;20250;-68
2022/01/24 08:24:02;;;;;;;112.07;51.13;;;2.80;95.10;;;;;;5123734;27;20208;-67
2022/01/24 08:26:29;;;;;;;112.83;50.77;;;2.90;95.20;;;;;;5125284;27;20268;-68
2022/01/24 08:28:56;;;;;;;106.37;48.70;;;2.90;95.10;;;;;;5123945;27;20215;-68
2022/01/24 08:31:23;;;;;;;102.90;47.13;;;2.90;95.10;;;;;;5125492;27;20223;-68
2022/01/24 08:33:50;;;;;;;102.67;49.53;;;3.00;95.10;;;;;;5123915;27;20192;-68
2022/01/24 08:36:18;;;;;;;108.80;51.37;;;3.00;95.10;;;;;;5125314;27;20197;-67
2022/01/24 08:38:49;;;;;;;127.63;59.53;;;3.00;95.10;;;;;;5122296;27;20235;-68
2022/01/24 08:41:26;;;;;;;154.67;71.27;;;3.10;95.10;;;;;;5126040;27;20208;-68
2022/01/24 08:44:09;;;;;;;355.53;191.67;;;3.10;95.10;;;;;;5124269;27;20211;-68
2022/01/24 08:46:40;;;;;;;326.10;153.03;;;3.10;95.10;;;;;;5124463;27;20672;-68
2022/01/24 08:49:08;;;;;;;1999.90;878.90;;;3.10;95.00;;;;;;5122979;27;20210;-68
2022/01/24 08:51:35;;;;;;;157.57;77.27;;;3.20;95.10;;;;;;5123252;27;20223;-68
2022/01/24 08:54:22;;;;;;;242.43;113.40;;;3.20;95.10;;;;;;5123307;27;20200;-68
2022/01/24 08:56:49;;;;;;;1999.90;999.90;;;3.20;95.00;;;;;;5125490;27;20598;-68
2022/01/24 08:59:16;;;;;;;159.97;76.43;;;3.30;95.00;;;;;;5125892;27;20200;-68
2022/01/24 09:01:43;;;;;;;1999.90;917.87;;;3.30;94.80;;;;;;5124505;27;20203;-68
2022/01/24 09:04:11;;;;;;;1999.90;860.13;;;3.30;94.80;;;;;;5121839;27;20200;-68
2022/01/24 09:06:38;;;;;;;475.27;179.80;;;3.40;94.60;;;;;;5123829;27;20206;-68
2022/01/24 09:09:06;;;;;;;1383.40;527.00;;;3.40;94.60;;;;;;5124736;28;20214;-68
2022/01/24 09:14:43;;;;;;;1999.90;875.47;;;3.40;94.40;;;;;;5118495;27;20608;-81
2022/01/24 09:17:14;;;;;;;1044.40;489.30;;;3.40;94.50;;;;;;5117390;28;20197;-82
2022/01/24 09:19:48;;;;;;;493.83;260.80;;;3.40;94.50;;;;;;5103022;28;20207;-82
2022/01/24 09:22:36;;;;;;;237.23;95.77;;;3.40;94.50;;;;;;5117758;28;20189;-81
2022/01/24 09:25:06;;;;;;;105.17;56.03;;;3.40;94.60;;;;;;5116180;28;20208;-81
2022/01/24 09:27:33;;;;;;;137.27;62.27;;;3.40;94.60;;;;;;5117575;28;20239;-82
2022/01/24 09:30:01;;;;;;;140.17;65.13;;;3.50;94.80;;;;;;5121245;28;20659;-81
2022/01/24 09:32:28;;;;;;;150.40;64.83;;;3.50;94.80;;;;;;5117192;28;20220;-82
2022/01/24 09:34:59;;;;;;;91.17;47.07;;;3.50;94.80;;;;;;5117797;28;20212;-82
2022/01/24 09:37:33;;;;;;;141.67;61.63;;;3.60;94.90;;;;;;5101310;28;20193;-81
2022/01/24 09:40:04;;;;;;;116.97;54.87;;;3.60;94.80;;;;;;5117517;28;20552;-81
2022/01/24 09:42:36;;;;;;;102.83;51.43;;;3.60;94.70;;;;;;5099791;28;20237;-81
2022/01/24 09:45:04;;;;;;;123.83;63.80;;;3.60;94.90;;;;;;5116514;28;20203;-81
2022/01/24 09:47:35;;;;;;;90.63;46.63;;;3.60;94.80;;;;;;5100424;28;20204;-81
2022/01/24 09:54:47;;;;;;;86.90;44.43;;;3.80;94.90;;;;;;5095048;28;20215;-81
2022/01/24 09:57:18;;;;;;;91.97;48.27;;;3.90;94.70;;;;;;5109839;28;20201;-81
2022/01/24 09:59:46;;;;;;;110.27;52.60;;;3.80;94.20;;;;;;5115364;28;20185;-81
2022/01/24 10:02:14;;;;;;;115.90;52.50;;;3.80;94.20;;;;;;5115266;28;20204;-81
2022/01/24 10:04:44;;;;;;;85.00;44.13;;;3.90;94.50;;;;;;5114949;28;20297;-81
2022/01/24 10:07:17;;;;;;;101.83;51.07;;;3.90;94.60;;;;;;5113939;28;20197;-82
2022/01/24 10:09:51;;;;;;;138.77;64.77;;;4.00;94.60;;;;;;5098145;28;20268;-81
2022/01/24 10:18:06;;;;;;;103.40;50.37;;;4.20;94.80;;;;;;5111569;28;20267;-82
2022/01/24 10:20:39;;;;;;;121.90;54.87;;;4.30;94.80;;;;;;5096756;28;20290;-81
2022/01/24 10:23:11;;;;;;;105.57;54.90;;;4.40;94.80;;;;;;5113689;28;20195;-81
2022/01/24 10:25:52;;;;;;;108.53;55.87;;;4.50;94.70;;;;;;5085211;28;20548;-81
2022/01/24 10:28:27;;;;;;;105.33;52.67;;;4.50;94.60;;;;;;5100924;28;20260;-81
2022/01/24 10:31:25;;;;;;;107.20;55.60;;;4.60;94.60;;;;;;5100486;28;20185;-81
2022/01/24 10:34:09;;;;;;;97.67;50.20;;;4.70;94.60;;;;;;5100300;28;20215;-81
2022/01/24 10:36:40;;;;;;;87.57;48.40;;;4.70;94.50;;;;;;5085048;28;20220;-81
2022/01/24 10:39:18;;;;;;;80.03;46.63;;;4.80;94.40;;;;;;5102631;28;20605;-80
2022/01/24 10:42:21;;;;;;;85.73;48.10;;;4.80;94.30;;;;;;5101711;28;20231;-81
2022/01/24 10:44:50;;;;;;;83.87;47.30;;;4.90;94.20;;;;;;5083900;28;20197;-81
2022/01/24 10:47:22;;;;;;;90.80;48.20;;;4.90;94.20;;;;;;5084097;28;20204;-81
2022/01/24 10:49:50;;;;;;;87.93;48.33;;;5.00;94.20;;;;;;5100072;28;20281;-81
2022/01/24 10:52:21;;;;;;;84.67;47.23;;;5.00;94.20;;;;;;5100470;28;20209;-81
2022/01/24 10:54:50;;;;;;;94.23;50.03;;;5.00;94.20;;;;;;5082199;28;20265;-81
2022/01/24 10:57:27;;;;;;;96.50;49.07;;;5.10;94.10;;;;;;5082648;28;20207;-81
2022/01/24 11:00:09;;;;;;;85.17;48.83;;;5.10;94.00;;;;;;5099301;28;20582;-81
2022/01/24 11:02:41;;;;;;;86.80;48.67;;;5.20;94.00;;;;;;5099525;28;20248;-81
2022/01/24 11:05:16;;;;;;;92.03;49.97;;;5.30;93.90;;;;;;5099902;28;20239;-81
2022/01/24 11:07:56;;;;;;;105.00;53.33;;;5.30;93.80;;;;;;5100283;28;20632;-80
2022/01/24 11:10:56;;;;;;;89.83;51.17;;;5.30;93.80;;;;;;5085780;28;20198;-81
2022/01/24 11:13:40;;;;;;;95.13;53.60;;;5.40;93.90;;;;;;5085781;28;20235;-81
2022/01/24 11:16:08;;;;;;;101.30;53.10;;;5.40;93.70;;;;;;5099608;28;20756;-81
2022/01/24 11:18:44;;;;;;;99.67;55.87;;;5.40;93.70;;;;;;5097287;28;20230;-82
2022/01/24 11:21:15;;;;;;;101.17;53.97;;;5.50;93.70;;;;;;5098770;28;20186;-82
2022/01/24 11:23:44;;;;;;;120.43;61.60;;;5.50;93.60;;;;;;5077078;28;20634;-81
2022/01/24 11:26:12;;;;;;;118.23;63.87;;;5.60;93.60;;;;;;5084613;28;20208;-81
2022/01/24 11:28:40;;;;;;;134.47;62.30;;;5.60;93.80;;;;;;5098243;28;20198;-81
2022/01/24 11:31:19;;;;;;;124.53;66.17;;;5.70;93.70;;;;;;5090150;28;20222;-81
2022/01/24 11:34:20;;;;;;;119.27;62.63;;;5.70;93.50;;;;;;5086123;28;20345;-80
2022/01/24 11:36:47;;;;;;;112.57;56.20;;;5.70;93.50;;;;;;5107062;28;20273;-82
2022/01/24 11:40:31;;;;;;;114.17;58.27;;;5.80;93.40;;;;;;5095297;28;20210;-82
2022/01/24 11:43:01;;;;;;;121.17;58.30;;;5.80;93.10;;;;;;5091523;28;20247;-82
2022/01/24 11:45:55;;;;;;;122.53;60.47;;;5.80;93.00;;;;;;5086708;28;20218;-82
2022/01/24 11:48:23;;;;;;;117.17;60.20;;;5.80;93.00;;;;;;5078934;28;20768;-82
2022/01/24 11:51:03;;;;;;;100.37;56.77;;;5.90;93.00;;;;;;5095733;28;20220;-82
2022/01/24 11:53:33;;;;;;;113.37;57.50;;;5.90;92.90;;;;;;5103437;28;20277;-82
2022/01/24 11:56:21;;;;;;;105.93;56.23;;;5.90;92.80;;;;;;5089147;28;20302;-83
2022/01/24 11:58:50;;;;;;;108.93;57.67;;;5.90;92.70;;;;;;5082839;28;20212;-82
2022/01/24 12:01:36;;;;;;;107.60;56.57;;;6.00;92.80;;;;;;5092103;28;20213;-82
2022/01/24 12:04:04;;;;;;;101.43;53.70;;;6.00;92.90;;;;;;5089100;28;20208;-82
2022/01/24 12:07:13;;;;;;;93.23;50.87;;;6.10;93.00;;;;;;5094759;28;20218;-82
2022/01/24 12:09:51;;;;;;;91.53;50.93;;;6.20;92.80;;;;;;5094076;28;20226;-83
2022/01/24 12:12:49;;;;;;;79.13;46.43;;;6.30;92.70;;;;;;5089256;28;20215;-82
2022/01/24 12:15:38;;;;;;;85.13;48.57;;;6.40;92.60;;;;;;5093279;28;20287;-82
2022/01/24 12:18:07;;;;;;;74.23;46.07;;;6.50;92.20;;;;;;5080832;28;20312;-82
2022/01/24 12:20:37;;;;;;;68.27;44.37;;;6.50;92.20;;;;;;5102394;28;20212;-82
2022/01/24 12:23:21;;;;;;;64.43;42.30;;;6.60;92.30;;;;;;5094079;28;20203;-82
2022/01/24 12:26:23;;;;;;;71.73;43.87;;;6.70;92.00;;;;;;5087815;28;20208;-81
2022/01/24 12:29:04;;;;;;;61.00;39.73;;;6.70;91.80;;;;;;5088278;28;20309;-84
2022/01/24 12:32:03;;;;;;;62.30;39.93;;;6.80;91.80;;;;;;5095178;28;20210;-83
2022/01/24 12:34:41;;;;;;;67.10;41.97;;;6.80;91.50;;;;;;5087063;28;20225;-83
2022/01/24 12:37:27;;;;;;;60.50;39.00;;;6.80;91.30;;;;;;5092839;28;20262;-83
2022/01/24 12:40:06;;;;;;;69.57;42.27;;;6.80;91.50;;;;;;5088587;28;20232;-84
2022/01/24 12:48:25;;;;;;;64.27;40.30;;;7.20;91.40;;;;;;5096764;28;20281;-83
2022/01/24 12:50:54;;;;;;;62.77;39.77;;;7.30;91.50;;;;;;5089131;28;20690;-85
2022/01/24 12:53:22;;;;;;;67.00;39.07;;;7.40;90.90;;;;;;5076304;28;20299;-82
2022/01/24 12:56:01;;;;;;;63.03;40.60;;;7.40;90.80;;;;;;5084550;28;20261;-80
2022/01/24 12:58:37;;;;;;;59.83;39.20;;;7.40;90.70;;;;;;5090840;28;20207;-83
2022/01/24 13:01:16;;;;;;;59.77;39.23;;;7.40;90.60;;;;;;5090034;28;20279;-80
2022/01/24 13:04:00;;;;;;;56.93;36.83;;;7.40;90.20;;;;;;5092085;28;20235;-81
2022/01/24 13:06:32;;;;;;;58.70;38.80;;;7.40;90.60;;;;;;5087488;28;20220;-80
2022/01/24 13:09:03;;;;;;;61.53;38.73;;;7.40;90.80;;;;;;5090523;28;20199;-81
2022/01/24 13:11:31;;;;;;;63.00;40.50;;;7.30;90.80;;;;;;5082214;28;20231;-81
2022/01/24 13:14:18;;;;;;;70.50;44.70;;;7.30;91.10;;;;;;5091621;28;20244;-81
2022/01/24 13:22:53;;;;;;;64.13;39.67;;;7.30;91.60;;;;;;5086112;28;20275;-79
2022/01/24 13:25:33;;;;;;;67.83;39.60;;;7.30;91.80;;;;;;5090725;28;20209;-82
2022/01/24 13:28:12;;;;;;;68.23;39.93;;;7.20;91.90;;;;;;5088989;28;20211;-79
2022/01/24 13:30:58;;;;;;;66.63;39.93;;;7.20;91.90;;;;;;5072328;28;20220;-80
2022/01/24 13:33:27;;;;;;;66.60;40.00;;;7.20;91.80;;;;;;5091051;28;20251;-81
2022/01/24 13:36:00;;;;;;;64.73;38.23;;;7.10;92.00;;;;;;5072848;28;20620;-82
2022/01/24 13:38:30;;;;;;;66.47;41.83;;;7.10;92.10;;;;;;5094623;28;20239;-79
2022/01/24 13:41:06;;;;;;;67.23;39.67;;;7.10;92.10;;;;;;5072275;28;20262;-80
2022/01/24 13:43:43;;;;;;;63.07;38.47;;;7.10;92.20;;;;;;5091740;28;20213;-78
2022/01/24 13:46:17;;;;;;;70.53;42.43;;;7.10;92.30;;;;;;5084098;28;20196;-78
2022/01/24 13:49:04;;;;;;;68.10;41.77;;;7.10;92.40;;;;;;5083873;28;20267;-78
2022/01/24 13:51:37;;;;;;;76.20;40.10;;;7.10;92.40;;;;;;5086847;28;20209;-79
2022/01/24 13:54:07;;;;;;;80.80;43.57;;;7.10;92.40;;;;;;5088828;28;20212;-80
2022/01/24 13:56:48;;;;;;;79.10;42.73;;;7.10;92.20;;;;;;5077030;28;20299;-79
2022/01/24 13:59:35;;;;;;;82.20;43.10;;;7.00;92.40;;;;;;5073915;28;20565;-81
2022/01/24 14:02:04;;;;;;;75.43;42.10;;;7.00;92.50;;;;;;5073284;28;20208;-80
2022/01/24 14:04:42;;;;;;;75.80;42.00;;;6.90;92.30;;;;;;5088612;28;20208;-81
2022/01/24 14:07:11;;;;;;;81.60;44.10;;;6.80;92.30;;;;;;5092026;28;20245;-78
2022/01/24 14:09:49;;;;;;;93.57;44.40;;;6.80;92.20;;;;;;5077789;28;20215;-81
2022/01/24 14:12:20;;;;;;;79.80;42.20;;;6.70;92.30;;;;;;5096622;28;20842;-80
2022/01/24 14:15:03;;;;;;;84.87;48.27;;;6.70;92.50;;;;;;5093999;28;20236;-79
2022/01/24 14:17:49;;;;;;;92.20;47.30;;;6.60;92.70;;;;;;5086764;28;20225;-80
2022/01/24 14:20:19;;;;;;;83.33;45.13;;;6.60;92.70;;;;;;5086757;28;20610;-77
2022/01/24 14:22:54;;;;;;;87.83;46.53;;;6.60;92.90;;;;;;5099134;28;20216;-76
2022/01/24 14:25:25;;;;;;;88.43;48.20;;;6.60;92.90;;;;;;5079264;28;20221;-78
2022/01/24 14:27:56;;;;;;;105.40;46.07;;;6.60;92.70;;;;;;5102280;28;20656;-81
2022/01/24 14:30:40;;;;;;;90.57;47.47;;;6.50;92.60;;;;;;5097975;28;20311;-80
2022/01/24 14:33:18;;;;;;;93.97;48.60;;;6.50;92.60;;;;;;5083403;28;20527;-81
2022/01/24 14:35:57;;;;;;;86.00;48.10;;;6.50;92.90;;;;;;5084291;28;20287;-79
2022/01/24 14:38:45;;;;;;;86.30;46.70;;;6.50;92.60;;;;;;5102500;28;20218;-78
2022/01/24 14:41:43;;;;;;;83.67;46.43;;;6.40;92.40;;;;;;5094241;28;20205;-81
2022/01/24 14:46:59;;;;;;;86.87;48.60;;;6.30;92.50;;;;;;5097896;28;20308;-79
2022/01/24 14:49:29;;;;;;;85.03;47.50;;;6.30;92.60;;;;;;5091440;28;20229;-79
2022/01/24 14:52:05;;;;;;;83.23;46.80;;;6.40;92.60;;;;;;5074472;28;20308;-79
2022/01/24 14:54:34;;;;;;;83.83;47.10;;;6.40;92.70;;;;;;5079379;28;20227;-80
2022/01/24 14:57:04;;;;;;;83.27;47.73;;;6.40;92.80;;;;;;5074808;28;20200;-80
2022/01/24 14:59:34;;;;;;;93.40;49.67;;;6.40;92.80;;;;;;5100590;28;20203;-81
2022/01/24 15:02:02;;;;;;;85.10;47.00;;;6.50;92.90;;;;;;5062600;28;20216;-79
2022/01/24 15:04:31;;;;;;;84.90;46.83;;;6.50;92.90;;;;;;5074218;28;20205;-80
2022/01/24 15:06:59;;;;;;;85.27;47.37;;;6.50;92.80;;;;;;5086504;28;20247;-80
2022/01/24 15:09:30;;;;;;;85.13;46.53;;;6.50;92.70;;;;;;5095284;28;20671;-79
2022/01/24 15:12:00;;;;;;;85.13;47.73;;;6.50;92.60;;;;;;5099165;28;20228;-79